createdAt,value
2022-10-16T00:02:33.230Z,95557.88
2022-10-16T00:05:42.093Z,95559.00
2022-10-16T00:08:44.210Z,95555.53
2022-10-16T00:11:46.255Z,95551.31
2022-10-16T00:14:48.176Z,95550.53
2022-10-16T00:17:50.401Z,95547.91
2022-10-16T00:20:53.796Z,95558.31
2022-10-16T00:23:58.849Z,95557.91
2022-10-16T00:27:00.809Z,95563.31
2022-10-16T00:30:03.918Z,95564.50
2022-10-16T00:33:05.837Z,95560.25
2022-10-16T00:36:12.825Z,95559.47
2022-10-16T00:39:14.935Z,95559.78
2022-10-16T00:42:17.876Z,95569.50
2022-10-16T00:45:19.890Z,95565.59
2022-10-16T00:48:22.271Z,95566.78
2022-10-16T00:51:29.575Z,95567.16
2022-10-16T00:54:33.136Z,95571.38
2022-10-16T00:57:35.081Z,95577.19
2022-10-16T01:00:36.999Z,95580.34
2022-10-16T01:03:39.337Z,95582.41
2022-10-16T01:06:53.004Z,95579.81
2022-10-16T01:10:08.469Z,95582.94
2022-10-16T01:13:13.639Z,95589.91
2022-10-16T01:16:23.699Z,95586.78
2022-10-16T01:19:42.197Z,95591.38
2022-10-16T01:23:00.064Z,95584.41
2022-10-16T01:26:18.686Z,95587.56
2022-10-16T01:29:27.158Z,95582.47
2022-10-16T01:32:34.717Z,95589.44
2022-10-16T01:35:40.177Z,95598.31
2022-10-16T01:38:45.653Z,95598.41
2022-10-16T01:41:52.921Z,95595.38
2022-10-16T01:44:58.595Z,95592.69
2022-10-16T01:48:03.315Z,95596.97
2022-10-16T01:51:09.650Z,95587.25
2022-10-16T01:54:14.794Z,95589.94
2022-10-16T01:57:19.115Z,95589.19
2022-10-16T02:00:23.673Z,95593.78
2022-10-16T02:03:25.635Z,95596.91
2022-10-16T02:06:27.601Z,95600.03
2022-10-16T02:09:31.338Z,95597.31
2022-10-16T02:12:37.342Z,95593.06
2022-10-16T02:15:41.069Z,95598.09
2022-10-16T02:18:44.546Z,95585.34
2022-10-16T02:21:52.564Z,95583.41
2022-10-16T02:24:59.033Z,95589.97
2022-10-16T02:28:07.398Z,95592.28
2022-10-16T02:31:14.091Z,95592.31
2022-10-16T02:34:17.778Z,95596.94
2022-10-16T02:37:20.277Z,95596.94
2022-10-16T02:40:25.189Z,95603.94
2022-10-16T02:43:27.516Z,95607.00
2022-10-16T02:46:31.028Z,95612.41
2022-10-16T02:49:33.000Z,95621.31
2022-10-16T02:52:34.935Z,95617.84
2022-10-16T02:55:36.932Z,95610.84
2022-10-16T02:58:38.843Z,95613.97
2022-10-16T03:01:42.207Z,95621.31
2022-10-16T03:04:44.097Z,95624.00
2022-10-16T03:07:46.178Z,95621.28
2022-10-16T03:10:48.164Z,95630.97
2022-10-16T03:13:50.135Z,95633.19
2022-10-16T03:16:53.950Z,95621.63
2022-10-16T03:19:56.053Z,95618.94
2022-10-16T03:22:58.080Z,95610.47
2022-10-16T03:26:00.433Z,95607.00
2022-10-16T03:29:02.912Z,95619.41
2022-10-16T03:32:06.545Z,95625.56
2022-10-16T03:35:09.023Z,95619.00
2022-10-16T03:38:11.153Z,95622.47
2022-10-16T03:41:13.584Z,95630.63
2022-10-16T03:44:15.546Z,95639.50
2022-10-16T03:47:19.001Z,95637.56
2022-10-16T03:50:21.027Z,95639.88
2022-10-16T03:53:23.023Z,95648.00
2022-10-16T03:56:25.006Z,95661.16
2022-10-16T03:59:26.940Z,95648.78
2022-10-16T04:02:30.260Z,95643.72
2022-10-16T04:05:32.177Z,95648.78
2022-10-16T04:08:34.342Z,95654.94
2022-10-16T04:11:36.227Z,95660.00
2022-10-16T04:14:38.203Z,95658.44
2022-10-16T04:17:41.567Z,95659.22
2022-10-16T04:20:43.490Z,95661.56
2022-10-16T04:23:45.458Z,95648.00
2022-10-16T04:26:47.361Z,95656.09
2022-10-16T04:29:49.281Z,95658.44
2022-10-16T04:32:52.986Z,95654.19
2022-10-16T04:35:58.294Z,95651.88
2022-10-16T04:39:00.450Z,95661.16
2022-10-16T04:42:02.378Z,95645.28
2022-10-16T04:45:05.276Z,95643.38
2022-10-16T04:48:08.767Z,95657.69
2022-10-16T04:51:10.697Z,95655.38
2022-10-16T04:54:12.733Z,95666.56
2022-10-16T04:57:14.643Z,95651.81
2022-10-16T05:00:16.865Z,95660.22
2022-10-16T05:03:20.373Z,95666.75
2022-10-16T05:06:22.440Z,95684.03
2022-10-16T05:09:24.527Z,95695.13
2022-10-16T05:12:26.572Z,95688.91
2022-10-16T05:15:28.486Z,95683.56
2022-10-16T05:18:31.847Z,95679.47
2022-10-16T05:21:33.754Z,95689.53
2022-10-16T05:24:35.653Z,95689.19
2022-10-16T05:27:37.695Z,95697.34
2022-10-16T05:30:39.997Z,95702.53
2022-10-16T05:33:43.345Z,95700.19
2022-10-16T05:36:45.361Z,95701.81
2022-10-16T05:39:47.288Z,95705.75
2022-10-16T05:42:49.190Z,95717.34
2022-10-16T05:45:57.663Z,95720.13
2022-10-16T05:49:00.993Z,95708.19
2022-10-16T05:52:03.090Z,95711.69
2022-10-16T05:55:06.040Z,95725.41
2022-10-16T05:58:07.895Z,95727.25
2022-10-16T06:01:12.291Z,95731.66
2022-10-16T06:04:15.766Z,95724.72
2022-10-16T06:07:18.069Z,95735.22
2022-10-16T06:10:20.347Z,95749.91
2022-10-16T06:13:22.313Z,95754.84
2022-10-16T06:16:24.739Z,95746.66
2022-10-16T06:19:28.070Z,95754.84
2022-10-16T06:22:30.360Z,95746.66
2022-10-16T06:25:32.470Z,95758.56
2022-10-16T06:28:34.354Z,95761.28
2022-10-16T06:31:36.271Z,95753.28
2022-10-16T06:34:41.883Z,95754.13
2022-10-16T06:37:45.985Z,95753.44
2022-10-16T06:40:47.919Z,95757.72
2022-10-16T06:43:49.995Z,95754.28
2022-10-16T06:46:51.992Z,95762.06
2022-10-16T06:49:55.305Z,95755.50
2022-10-16T06:52:57.282Z,95762.47
2022-10-16T06:56:07.073Z,95763.28
2022-10-16T06:59:09.148Z,95761.75
2022-10-16T07:02:11.078Z,95774.13
2022-10-16T07:05:14.539Z,95773.38
2022-10-16T07:08:16.482Z,95771.44
2022-10-16T07:11:20.570Z,95767.59
2022-10-16T07:14:22.988Z,95765.28
2022-10-16T07:17:24.944Z,95762.19
2022-10-16T07:20:28.476Z,95766.44
2022-10-16T07:23:30.362Z,95775.34
2022-10-16T07:26:34.473Z,95776.91
2022-10-16T07:29:36.397Z,95779.59
2022-10-16T07:32:38.449Z,95780.34
2022-10-16T07:35:50.577Z,95783.06
2022-10-16T07:38:54.232Z,95781.81
2022-10-16T07:41:59.264Z,95789.97
2022-10-16T07:45:01.193Z,95792.25
2022-10-16T07:48:03.478Z,95789.13
2022-10-16T07:51:08.382Z,95786.03
2022-10-16T07:54:10.907Z,95785.63
2022-10-16T07:57:12.826Z,95786.34
2022-10-16T08:00:14.975Z,95783.59
2022-10-16T08:03:16.954Z,95788.63
2022-10-16T08:06:25.273Z,95793.69
2022-10-16T08:09:29.853Z,95794.00
2022-10-16T08:12:31.833Z,95795.91
2022-10-16T08:15:34.303Z,95799.34
2022-10-16T08:18:36.689Z,95810.16
2022-10-16T08:21:40.015Z,95817.50
2022-10-16T08:24:42.286Z,95811.09
2022-10-16T08:27:44.245Z,95811.41
2022-10-16T08:30:46.509Z,95816.47
2022-10-16T08:33:48.739Z,95816.38
2022-10-16T08:36:54.178Z,95810.09
2022-10-16T08:39:56.109Z,95812.75
2022-10-16T08:43:30.599Z,95817.69
2022-10-16T08:46:50.424Z,95820.41
2022-10-16T08:49:57.950Z,95819.66
2022-10-16T08:53:01.439Z,95825.84
2022-10-16T08:56:03.484Z,95817.97
2022-10-16T08:59:11.325Z,95832.25
2022-10-16T09:02:28.303Z,95835.31
2022-10-16T09:05:51.422Z,95841.88
2022-10-16T09:09:06.100Z,95840.88
2022-10-16T09:12:17.747Z,95841.63
2022-10-16T09:15:29.984Z,95837.75
2022-10-16T09:18:38.484Z,95842.00
2022-10-16T09:21:43.277Z,95848.81
2022-10-16T09:24:46.709Z,95843.75
2022-10-16T09:27:53.301Z,95847.69
2022-10-16T09:30:55.294Z,95855.34
2022-10-16T09:34:00.664Z,95855.84
2022-10-16T09:37:07.199Z,95853.97
2022-10-16T09:40:24.796Z,95850.28
2022-10-16T09:43:29.615Z,95863.47
2022-10-16T09:46:33.300Z,95865.69
2022-10-16T09:49:35.155Z,95864.75
2022-10-16T09:52:37.127Z,95867.44
2022-10-16T09:55:50.582Z,95874.34
2022-10-16T09:58:53.236Z,95876.53
2022-10-16T10:01:56.064Z,95881.06
2022-10-16T10:04:58.411Z,95875.50
2022-10-16T10:08:02.803Z,95882.56
2022-10-16T10:11:06.146Z,95881.31
2022-10-16T10:14:18.308Z,95876.84
2022-10-16T10:17:22.171Z,95867.81
2022-10-16T10:20:27.346Z,95872.75
2022-10-16T10:23:30.723Z,95874.31
2022-10-16T10:26:37.780Z,95866.81
2022-10-16T10:29:54.889Z,95870.88
2022-10-16T10:33:12.432Z,95864.06
2022-10-16T10:36:26.893Z,95861.41
2022-10-16T10:39:36.642Z,95868.03
2022-10-16T10:42:49.862Z,95861.06
2022-10-16T10:45:55.946Z,95861.38
2022-10-16T10:49:24.803Z,95861.38
2022-10-16T10:52:49.586Z,95869.47
2022-10-16T10:56:00.114Z,95873.09
2022-10-16T10:59:19.047Z,95875.56
2022-10-16T11:02:27.796Z,95876.44
2022-10-16T11:05:41.220Z,95874.34
2022-10-16T11:08:49.448Z,95877.56
2022-10-16T11:11:56.559Z,95880.56
2022-10-16T11:15:05.673Z,95873.22
2022-10-16T11:18:14.468Z,95870.56
2022-10-16T11:21:20.610Z,95869.09
2022-10-16T11:24:31.269Z,95868.56
2022-10-16T11:27:38.972Z,95862.75
2022-10-16T11:30:47.434Z,95864.56
2022-10-16T11:33:55.932Z,95864.06
2022-10-16T11:37:02.669Z,95861.66
2022-10-16T11:40:20.193Z,95865.19
2022-10-16T11:43:28.161Z,95855.78
2022-10-16T11:46:33.654Z,95855.94
2022-10-16T11:49:38.468Z,95861.16
2022-10-16T11:52:45.617Z,95852.16
2022-10-16T11:55:47.606Z,95850.03
2022-10-16T11:58:57.291Z,95847.28
2022-10-16T12:02:21.822Z,95852.66
2022-10-16T12:05:31.599Z,95851.13
2022-10-16T12:08:35.293Z,95847.63
2022-10-16T12:11:39.724Z,95846.63
2022-10-16T12:15:04.006Z,95851.75
2022-10-16T12:18:21.357Z,95846.66
2022-10-16T12:21:31.885Z,95843.19
2022-10-16T12:24:37.500Z,95838.03
2022-10-16T12:27:39.526Z,95838.25
2022-10-16T12:30:42.789Z,95845.22
2022-10-16T12:33:58.679Z,95841.41
2022-10-16T12:37:12.468Z,95846.13
2022-10-16T12:40:17.464Z,95847.22
2022-10-16T12:43:38.116Z,95849.41
2022-10-16T12:46:41.012Z,95852.03
2022-10-16T12:49:50.520Z,95843.16
2022-10-16T12:52:52.476Z,95841.41
2022-10-16T12:56:04.460Z,95844.47
2022-10-16T12:59:17.674Z,95846.28
2022-10-16T13:02:50.041Z,95850.69
2022-10-16T13:06:07.735Z,95847.94
2022-10-16T13:09:28.623Z,95853.38
2022-10-16T13:12:55.665Z,95848.00
2022-10-16T13:16:10.908Z,95856.00
2022-10-16T13:19:28.683Z,95859.41
2022-10-16T13:22:39.586Z,95857.63
2022-10-16T13:26:05.822Z,95861.56
2022-10-16T13:29:07.923Z,95863.53
2022-10-16T13:32:12.288Z,95861.66
2022-10-16T13:35:22.738Z,95861.56
2022-10-16T13:38:27.348Z,95872.06
2022-10-16T13:41:29.276Z,95879.28
2022-10-16T13:44:38.231Z,95869.97
2022-10-16T13:47:40.165Z,95877.22
2022-10-16T13:50:42.096Z,95877.88
2022-10-16T13:53:46.973Z,95883.03
2022-10-16T13:56:57.779Z,95881.16
2022-10-16T14:00:18.969Z,95885.78
2022-10-16T14:03:21.507Z,95881.28
2022-10-16T14:06:23.623Z,95883.16
2022-10-16T14:09:29.177Z,95880.84
2022-10-16T14:12:31.485Z,95885.88
2022-10-16T14:15:36.209Z,95887.44
2022-10-16T14:18:40.887Z,95885.31
2022-10-16T14:21:43.198Z,95886.41
2022-10-16T14:24:47.338Z,95884.69
2022-10-16T14:27:59.819Z,95895.28
2022-10-16T14:31:03.620Z,95895.97
2022-10-16T14:34:05.715Z,95897.53
2022-10-16T14:37:27.531Z,95891.59
2022-10-16T14:40:33.541Z,95893.03
2022-10-16T14:43:37.731Z,95897.31
2022-10-16T14:46:42.239Z,95886.56
2022-10-16T14:49:44.442Z,95893.66
2022-10-16T14:52:46.444Z,95898.16
2022-10-16T14:55:50.201Z,95888.59
2022-10-16T14:58:53.316Z,95893.00
2022-10-16T15:01:55.458Z,95900.25
2022-10-16T15:04:58.009Z,95893.13
2022-10-16T15:08:00.272Z,95894.56
2022-10-16T15:11:03.760Z,95891.47
2022-10-16T15:14:06.328Z,95892.19
2022-10-16T15:17:10.084Z,95889.44
2022-10-16T15:20:12.023Z,95895.75
2022-10-16T15:23:16.515Z,95897.63
2022-10-16T15:26:19.999Z,95896.94
2022-10-16T15:29:21.928Z,95905.72
2022-10-16T15:32:23.860Z,95904.16
2022-10-16T15:35:26.098Z,95900.38
2022-10-16T15:38:32.103Z,95902.91
2022-10-16T15:41:35.653Z,95909.09
2022-10-16T15:44:37.980Z,95910.63
2022-10-16T15:47:43.558Z,95914.59
2022-10-16T15:50:47.832Z,95913.75
2022-10-16T15:53:49.865Z,95913.97
2022-10-16T15:56:53.335Z,95910.78
2022-10-16T16:03:02.643Z,95908.44
2022-10-16T16:06:05.903Z,95915.31
2022-10-16T16:09:07.863Z,95916.72
2022-10-16T16:12:11.670Z,95915.69
2022-10-16T16:15:13.661Z,95921.53
2022-10-16T16:18:15.569Z,95921.19
2022-10-16T16:21:17.778Z,95918.63
2022-10-16T16:24:19.959Z,95935.63
2022-10-16T16:27:24.215Z,95935.28
2022-10-16T16:30:28.291Z,95934.56
2022-10-16T16:33:31.090Z,95938.84
2022-10-16T16:36:33.949Z,95950.41
2022-10-16T16:39:36.062Z,95952.31
2022-10-16T16:42:39.485Z,95950.53
2022-10-16T16:45:41.938Z,95955.91
2022-10-16T16:48:44.116Z,95957.53
2022-10-16T16:51:46.239Z,95954.09
2022-10-16T16:54:49.540Z,95960.19
2022-10-16T16:57:54.478Z,95965.91
2022-10-16T17:01:08.732Z,95970.03
2022-10-16T17:04:21.004Z,95977.13
2022-10-16T17:07:24.412Z,95969.25
2022-10-16T17:10:27.415Z,95978.06
2022-10-16T17:13:33.429Z,95976.31
2022-10-16T17:16:40.550Z,95983.09
2022-10-16T17:19:44.397Z,95990.69
2022-10-16T17:22:47.604Z,95994.31
2022-10-16T17:25:53.222Z,95996.25
2022-10-16T17:28:59.400Z,95998.59
2022-10-16T17:32:02.613Z,96010.19
2022-10-16T17:35:07.167Z,96008.09
2022-10-16T17:38:10.523Z,96011.22
2022-10-16T17:41:15.783Z,96005.03
2022-10-16T17:44:21.086Z,96013.91
2022-10-16T17:47:23.879Z,96012.38
2022-10-16T17:50:27.354Z,96012.91
2022-10-16T17:53:31.162Z,96014.16
2022-10-16T17:56:34.915Z,96013.50
2022-10-16T17:59:39.687Z,96021.34
2022-10-16T18:02:43.142Z,96029.44
2022-10-16T18:05:45.448Z,96030.72
2022-10-16T18:08:48.273Z,96032.22
2022-10-16T18:11:51.364Z,96037.22
2022-10-16T18:14:57.116Z,96037.50
2022-10-16T18:17:59.989Z,96049.59
2022-10-16T18:21:04.763Z,96048.56
2022-10-16T18:24:07.562Z,96056.50
2022-10-16T18:27:10.480Z,96050.47
2022-10-16T18:30:18.170Z,96052.75
2022-10-16T18:33:21.261Z,96057.78
2022-10-16T18:36:26.444Z,96062.34
2022-10-16T18:39:30.864Z,96057.34
2022-10-16T18:42:33.612Z,96066.53
2022-10-16T18:45:37.692Z,96071.75
2022-10-16T18:48:43.937Z,96079.22
2022-10-16T18:51:47.243Z,96073.78
2022-10-16T18:54:51.252Z,96081.91
2022-10-16T18:57:57.672Z,96075.66
2022-10-16T19:01:06.884Z,96087.56
2022-10-16T19:04:13.280Z,96079.38
2022-10-16T19:07:16.293Z,96085.16
2022-10-16T19:10:20.776Z,96085.50
2022-10-16T19:13:27.248Z,96086.63
2022-10-16T19:16:34.405Z,96087.47
2022-10-16T19:19:37.682Z,96096.44
2022-10-16T19:22:40.442Z,96094.31
2022-10-16T19:25:43.302Z,96092.09
2022-10-16T19:28:46.244Z,96094.00
2022-10-16T19:31:51.003Z,96098.19
2022-10-16T19:34:53.950Z,96097.38
2022-10-16T19:37:56.368Z,96091.09
2022-10-16T19:41:05.319Z,96102.84
2022-10-16T19:44:10.051Z,96094.00
2022-10-16T19:47:14.627Z,96098.66
2022-10-16T19:50:16.650Z,96105.63
2022-10-16T19:53:18.666Z,96098.66
2022-10-16T19:56:23.224Z,96105.22
2022-10-16T19:59:25.382Z,96104.56
2022-10-16T20:02:29.276Z,96106.13
2022-10-16T20:05:31.710Z,96109.56
2022-10-16T20:08:35.082Z,96114.56
2022-10-16T20:11:37.612Z,96113.47
2022-10-16T20:14:39.765Z,96118.50
2022-10-16T20:17:43.541Z,96118.50
2022-10-16T20:20:48.531Z,96118.50
2022-10-16T20:23:50.791Z,96118.16
2022-10-16T20:26:53.110Z,96122.03
2022-10-16T20:29:55.401Z,96118.88
2022-10-16T20:32:58.743Z,96123.19
2022-10-16T20:36:00.776Z,96123.56
2022-10-16T20:39:03.613Z,96124.34
2022-10-16T20:42:06.014Z,96116.97
2022-10-16T20:45:09.271Z,96129.78
2022-10-16T20:48:14.199Z,96122.03
2022-10-16T20:51:18.344Z,96122.88
2022-10-16T20:54:21.165Z,96125.25
2022-10-16T20:57:23.113Z,96118.25
2022-10-16T21:00:24.989Z,96128.78
2022-10-16T21:03:28.295Z,96125.69
2022-10-16T21:06:32.512Z,96124.53
2022-10-16T21:09:34.449Z,96128.06
2022-10-16T21:12:36.404Z,96132.75
2022-10-16T21:15:38.310Z,96126.16
2022-10-16T21:18:44.603Z,96134.31
2022-10-16T21:21:46.890Z,96135.13
2022-10-16T21:24:48.835Z,96127.78
2022-10-16T21:27:50.785Z,96135.97
2022-10-16T21:30:52.788Z,96137.53
2022-10-16T21:33:56.443Z,96138.34
2022-10-16T21:36:58.316Z,96143.75
2022-10-16T21:40:00.461Z,96138.75
2022-10-16T21:43:02.376Z,96148.47
2022-10-16T21:46:04.315Z,96150.03
2022-10-16T21:49:12.418Z,96142.28
2022-10-16T21:52:14.931Z,96147.28
2022-10-16T21:55:17.309Z,96151.59
2022-10-16T21:58:19.546Z,96148.06
2022-10-16T22:01:23.987Z,96149.25
2022-10-16T22:04:27.388Z,96157.03
2022-10-16T22:07:30.001Z,96160.53
2022-10-16T22:10:32.433Z,96161.31
2022-10-16T22:13:35.034Z,96160.16
2022-10-16T22:16:37.476Z,96158.22
2022-10-16T22:19:41.060Z,96162.88
2022-10-16T22:22:43.005Z,96167.19
2022-10-16T22:25:44.929Z,96170.28
2022-10-16T22:28:47.360Z,96162.53
2022-10-16T22:31:51.809Z,96162.94
2022-10-16T22:34:55.064Z,96163.34
2022-10-16T22:37:57.344Z,96165.28
2022-10-16T22:41:01.583Z,96158.69
2022-10-16T22:44:03.767Z,96155.97
2022-10-16T22:47:05.714Z,96156.38
2022-10-16T22:50:09.446Z,96153.66
2022-10-16T22:53:11.338Z,96157.94
2022-10-16T22:56:14.844Z,96152.50
2022-10-16T22:59:17.279Z,96149.78
2022-10-16T23:02:19.274Z,96147.84
2022-10-16T23:05:22.558Z,96152.88
2022-10-16T23:08:24.482Z,96152.13
2022-10-16T23:11:27.242Z,96161.06
2022-10-16T23:14:29.224Z,96161.06
2022-10-16T23:17:31.919Z,96162.63
2022-10-16T23:20:35.517Z,96161.44
2022-10-16T23:23:38.677Z,96164.16
2022-10-16T23:26:40.709Z,96168.41
2022-10-16T23:29:42.665Z,96164.94
2022-10-16T23:32:44.617Z,96170.78
2022-10-16T23:35:47.923Z,96168.06
2022-10-16T23:38:51.061Z,96172.72
2022-10-16T23:41:53.019Z,96175.44
2022-10-16T23:44:54.899Z,96173.88
2022-10-16T23:47:56.886Z,96172.72
2022-10-16T23:51:00.648Z,96166.88
2022-10-16T23:54:02.631Z,96163.41
2022-10-16T23:57:04.570Z,96167.28
